Time;durP1;ratioP1;P1;durP2;ratioP2;P2;SDS_P1;SDS_P2;PMS_P1;PMS_P2;Temp;Humidity;BMP_temperature;BMP_pressure;BME280_temperature;BME280_humidity;BME280_pressure;Samples;Min_cycle;Max_cycle;Signal;HPM_P1;HPM_P2
2023/08/09 00:02:46;;;;;;;5.35;2.50;;;;;;;22.04;75.94;99819.69;1750317;82;21322;-76
2023/08/09 00:05:52;;;;;;;3.37;2.30;;;;;;;23.22;70.85;99825.63;1736369;82;21315;-77
2023/08/09 00:08:58;;;;;;;7.95;2.40;;;;;;;22.20;72.99;99847.16;1750323;82;21869;-75
2023/08/09 00:12:05;;;;;;;6.35;1.92;;;;;;;22.22;73.18;99852.48;1736307;82;21324;-77
2023/08/09 00:15:05;;;;;;;4.90;1.98;;;;;;;22.01;73.32;99841.64;1748895;82;21338;-76
2023/08/09 00:18:10;;;;;;;3.83;2.12;;;;;;;21.42;74.90;99866.03;1736400;82;21890;-76
2023/08/09 00:21:16;;;;;;;3.70;1.80;;;;;;;21.95;73.48;99825.44;1751395;82;21854;-76
2023/08/09 00:24:16;;;;;;;5.60;2.00;;;;;;;21.98;72.28;99840.80;1735652;82;21348;-75
2023/08/09 00:27:08;;;;;;;3.95;2.60;;;;;;;21.52;72.95;99826.36;1750444;82;21892;-76
2023/08/09 00:29:55;;;;;;;5.08;3.27;;;;;;;21.32;74.55;99799.98;1736292;82;21307;-76
2023/08/09 00:32:49;;;;;;;7.08;3.20;;;;;;;21.13;75.51;99813.88;1750323;82;21861;-76
2023/08/09 00:35:54;;;;;;;4.83;3.27;;;;;;;21.38;75.08;99831.48;1714001;83;21316;-76
2023/08/09 00:39:01;;;;;;;6.03;3.72;;;;;;;21.38;75.12;99828.69;1740096;82;22562;-76
2023/08/09 00:42:07;;;;;;;6.78;3.50;;;;;;;21.40;75.04;99816.74;1713845;83;21855;-76
2023/08/09 00:45:13;;;;;;;10.25;4.45;;;;;;;21.25;75.63;99816.52;1738659;82;21311;-76
2023/08/09 00:48:19;;;;;;;8.95;5.53;;;;;;;21.07;75.78;99803.77;1714294;83;21276;-76
2023/08/09 00:51:24;;;;;;;20.62;6.40;;;;;;;20.97;75.88;99815.59;1739791;82;21295;-76
2023/08/09 00:54:30;;;;;;;11.40;6.62;;;;;;;20.88;76.21;99805.45;1712118;83;21367;-76
2023/08/09 00:57:38;;;;;;;15.63;9.00;;;;;;;20.85;76.15;99824.61;1695271;84;21293;-76
2023/08/09 01:00:45;;;;;;;18.42;10.43;;;;;;;20.88;76.21;99853.27;1694130;84;21322;-76
2023/08/09 01:03:50;;;;;;;26.10;11.15;;;;;;;21.03;75.31;99877.14;1695503;84;21641;-77
2023/08/09 01:07:16;;;;;;;21.68;11.38;;;;;;;20.95;75.81;99879.52;1695424;84;21354;-77
2023/08/09 01:10:43;;;;;;;19.67;10.65;;;;;;;21.06;75.26;99835.46;1702284;84;21883;-77
2023/08/09 01:13:49;;;;;;;18.30;11.05;;;;;;;21.07;74.91;99844.09;1708847;84;21315;-77
2023/08/09 01:16:54;;;;;;;14.63;9.95;;;;;;;20.85;75.57;99830.17;1683613;85;21949;-77
2023/08/09 01:20:04;;;;;;;13.83;8.55;;;;;;;20.57;76.40;99839.46;1708081;84;22583;-76
2023/08/09 01:23:12;;;;;;;15.13;6.83;;;;;;;20.57;76.67;99842.24;1683623;85;21362;-76
2023/08/09 01:26:19;;;;;;;11.78;5.37;;;;;;;20.67;76.07;99843.23;1709177;82;22047;-77
2023/08/09 01:29:25;;;;;;;7.53;4.67;;;;;;;20.56;76.72;99834.98;1715936;83;21341;-77
2023/08/09 01:32:32;;;;;;;11.60;5.45;;;;;;;20.66;76.41;99867.12;1663835;85;22606;-77
2023/08/09 01:35:42;;;;;;;12.98;7.20;;;;;;;19.73;80.60;99879.55;1671188;85;21372;-77
2023/08/09 01:38:54;;;;;;;16.20;7.75;;;;;;;19.52;81.47;99887.95;1698170;84;21405;-77
2023/08/09 01:41:59;;;;;;;12.85;6.47;;;;;;;19.44;82.47;99891.97;1712579;84;21894;-77
2023/08/09 01:45:07;;;;;;;12.40;4.97;;;;;;;19.37;82.62;99896.79;1712415;84;21314;-77
2023/08/09 01:48:14;;;;;;;8.30;3.90;;;;;;;19.45;82.14;99896.42;1712712;84;21323;-77
2023/08/09 01:51:21;;;;;;;3.77;2.92;;;;;;;19.33;82.52;99904.75;1711598;84;21371;-77
2023/08/09 01:54:27;;;;;;;5.33;2.30;;;;;;;19.26;82.74;99897.66;1712502;84;21898;-76
2023/08/09 01:57:33;;;;;;;7.33;2.33;;;;;;;19.33;82.34;99902.52;1712584;84;21910;-77
2023/08/09 02:00:40;;;;;;;3.17;1.92;;;;;;;19.33;82.07;99905.29;1712624;84;21329;-76
2023/08/09 02:03:47;;;;;;;3.70;2.00;;;;;;;19.41;81.71;99908.53;1712639;84;21858;-77
2023/08/09 02:06:54;;;;;;;3.67;1.95;;;;;;;19.38;81.08;99927.59;1711205;84;21370;-76
2023/08/09 02:10:01;;;;;;;5.33;1.75;;;;;;;19.38;80.99;99928.97;1712589;84;21312;-76
2023/08/09 02:13:08;;;;;;;4.17;1.62;;;;;;;19.46;80.44;99927.22;1712589;84;21315;-77
2023/08/09 02:16:08;;;;;;;2.02;1.50;;;;;;;19.55;79.04;99955.43;1711831;84;21343;-77
2023/08/09 02:19:13;;;;;;;2.47;1.62;;;;;;;19.53;78.76;99945.14;1712561;84;21316;-76
2023/08/09 02:22:21;;;;;;;3.25;1.67;;;;;;;19.02;80.64;99932.87;1711222;84;21344;-76
2023/08/09 02:25:28;;;;;;;6.53;1.37;;;;;;;19.29;79.42;99947.06;1712368;84;21322;-77
2023/08/09 02:28:34;;;;;;;2.98;1.52;;;;;;;19.27;79.54;99952.02;1712522;84;21874;-76
2023/08/09 02:31:41;;;;;;;1.65;1.30;;;;;;;19.23;79.00;99945.27;1712512;84;21339;-77
2023/08/09 02:34:48;;;;;;;5.25;1.12;;;;;;;19.34;78.78;99962.46;1712635;84;21311;-77
2023/08/09 02:37:54;;;;;;;1.98;1.50;;;;;;;19.23;78.62;99953.59;1700077;83;21351;-77
2023/08/09 02:41:01;;;;;;;2.00;1.35;;;;;;;19.29;78.44;99952.61;1654173;85;21321;-77
2023/08/09 02:44:06;;;;;;;4.15;1.35;;;;;;;19.20;78.52;99963.25;1679331;85;21356;-77
2023/08/09 02:47:08;;;;;;;4.47;1.40;;;;;;;19.08;78.70;99958.23;1678463;85;21333;-76
2023/08/09 02:50:14;;;;;;;3.02;1.20;;;;;;;19.24;78.55;99957.50;1679287;85;21349;-76
2023/08/09 02:53:23;;;;;;;1.95;1.45;;;;;;;19.04;78.99;99967.56;1679389;85;21321;-78
2023/08/09 02:56:28;;;;;;;1.40;1.10;;;;;;;19.31;77.93;99962.39;1679637;85;21393;-76
2023/08/09 02:59:35;;;;;;;3.90;1.40;;;;;;;19.47;77.06;99967.73;1679267;85;21341;-76
2023/08/09 03:02:41;;;;;;;2.65;1.47;;;;;;;19.52;77.12;99962.84;1679293;85;21389;-76
2023/08/09 03:05:48;;;;;;;4.42;1.12;;;;;;;19.77;75.52;99969.55;1679193;85;21325;-77
2023/08/09 03:08:53;;;;;;;1.92;1.37;;;;;;;19.77;74.64;99963.99;1679264;85;21685;-76
2023/08/09 03:11:59;;;;;;;1.65;1.02;;;;;;;20.24;73.43;99965.22;1679309;85;21928;-76
2023/08/09 03:15:05;;;;;;;1.37;0.95;;;;;;;20.47;71.48;99977.64;1678059;85;21927;-76
2023/08/09 03:18:12;;;;;;;0.95;0.80;;;;;;;20.57;70.96;99978.37;1678037;85;21357;-76
2023/08/09 03:21:19;;;;;;;1.25;0.90;;;;;;;20.79;69.83;99982.64;1679231;85;21336;-77
2023/08/09 03:24:26;;;;;;;0.95;0.82;;;;;;;20.70;70.03;99975.80;1679335;85;21354;-75
2023/08/09 03:27:32;;;;;;;2.22;1.05;;;;;;;20.82;69.43;99975.20;1678362;85;21337;-76
2023/08/09 03:30:38;;;;;;;2.55;1.10;;;;;;;21.09;68.26;99976.77;1679296;85;21325;-75
2023/08/09 03:33:43;;;;;;;1.15;1.05;;;;;;;20.86;68.85;99980.55;1679297;85;21916;-75
2023/08/09 03:36:50;;;;;;;2.17;0.80;;;;;;;21.35;67.54;99971.91;1678518;85;21954;-76
2023/08/09 03:39:58;;;;;;;1.42;1.00;;;;;;;20.75;68.33;99987.01;1693576;84;21316;-75
2023/08/09 03:43:06;;;;;;;1.67;1.20;;;;;;;21.99;64.30;99977.52;1692953;84;21895;-75
2023/08/09 03:46:13;;;;;;;2.00;1.00;;;;;;;22.53;62.06;99990.97;1738252;82;21869;-75
2023/08/09 03:49:19;;;;;;;1.37;1.07;;;;;;;23.46;59.52;99988.73;1738284;82;21881;-75
2023/08/09 03:52:25;;;;;;;1.07;0.98;;;;;;;23.94;58.39;99984.55;1693329;84;21356;-76
2023/08/09 03:55:32;;;;;;;1.75;1.05;;;;;;;23.14;59.62;99988.77;1739632;82;21314;-76
2023/08/09 03:58:38;;;;;;;2.08;0.80;;;;;;;23.20;60.12;99984.94;1694334;84;21317;-76
2023/08/09 04:01:44;;;;;;;3.05;1.00;;;;;;;22.58;61.21;99979.88;1693062;84;21325;-77
2023/08/09 04:04:50;;;;;;;4.42;0.90;;;;;;;22.75;61.33;99981.72;1739714;82;21342;-76
2023/08/09 04:07:57;;;;;;;1.70;0.93;;;;;;;22.82;60.81;99993.48;1738712;82;21342;-76
2023/08/09 04:11:08;;;;;;;4.62;1.10;;;;;;;23.03;59.70;99995.95;1694238;84;21879;-76
2023/08/09 04:14:12;;;;;;;3.92;0.90;;;;;;;23.13;59.48;99998.81;1739436;82;21944;-75
2023/08/09 04:17:18;;;;;;;3.72;0.93;;;;;;;23.13;59.14;100006.63;1693827;84;21705;-75
2023/08/09 04:20:24;;;;;;;5.72;0.80;;;;;;;23.27;58.58;100012.59;1694200;84;21349;-76
2023/08/09 04:23:30;;;;;;;3.52;1.00;;;;;;;23.45;58.24;100026.13;1738733;82;21345;-77
2023/08/09 04:26:37;;;;;;;0.80;0.80;;;;;;;23.69;57.59;100017.39;1739418;82;21311;-76
2023/08/09 04:29:42;;;;;;;0.95;0.80;;;;;;;24.02;56.02;100016.73;1748892;80;21312;-77
2023/08/09 04:32:48;;;;;;;2.37;0.90;;;;;;;24.19;55.85;100022.95;1777925;80;21303;-77
2023/08/09 04:35:54;;;;;;;1.75;0.88;;;;;;;24.22;55.07;100037.20;1778206;80;22231;-77
2023/08/09 04:39:01;;;;;;;1.00;0.90;;;;;;;24.37;55.12;100029.48;1774324;80;21894;-76
2023/08/09 04:42:06;;;;;;;2.35;0.68;;;;;;;24.35;55.06;100042.02;1776023;80;21343;-77
2023/08/09 04:45:15;;;;;;;1.32;1.10;;;;;;;24.39;54.47;100045.98;1759487;80;21308;-77
2023/08/09 04:48:26;;;;;;;1.62;0.90;;;;;;;24.49;54.31;100051.59;1741583;82;21698;-77
2023/08/09 04:51:32;;;;;;;3.33;1.10;;;;;;;24.62;53.99;100052.48;1741376;82;21275;-77
2023/08/09 04:54:38;;;;;;;1.32;0.70;;;;;;;24.77;53.49;100059.23;1741031;82;21954;-76
2023/08/09 04:57:44;;;;;;;1.15;0.72;;;;;;;25.15;52.73;100060.15;1741090;82;21334;-76
2023/08/09 05:00:51;;;;;;;0.93;0.85;;;;;;;25.43;50.88;100061.55;1744870;80;21329;-76
2023/08/09 05:03:51;;;;;;;1.95;0.80;;;;;;;25.36;50.93;100067.14;1711993;84;21326;-77
2023/08/09 05:06:57;;;;;;;3.87;0.90;;;;;;;25.57;50.19;100068.83;1711742;84;21345;-77
2023/08/09 05:13:17;;;;;;;5.00;0.70;;;;;;;25.32;50.27;100073.89;1690854;85;21886;-77
2023/08/09 05:16:25;;;;;;;0.70;0.70;;;;;;;22.71;57.11;100063.08;1728788;83;22558;-77
2023/08/09 05:19:32;;;;;;;7.72;0.78;;;;;;;22.82;58.98;100065.45;1731083;83;21966;-77
2023/08/09 05:22:39;;;;;;;2.50;1.40;;;;;;;22.82;58.97;100063.19;1732506;83;21315;-77
2023/08/09 05:25:44;;;;;;;1.12;0.65;;;;;;;22.47;60.19;100069.22;1732120;83;21886;-74
2023/08/09 05:28:51;;;;;;;0.70;0.50;;;;;;;23.30;57.36;100067.04;1730976;83;21316;-75
2023/08/09 05:31:57;;;;;;;0.80;0.72;;;;;;;21.89;61.99;100069.56;1720403;83;21292;-78
2023/08/09 05:35:04;;;;;;;1.47;0.60;;;;;;;22.51;61.03;100074.02;1695306;83;21359;-77
2023/08/09 05:38:11;;;;;;;2.87;0.75;;;;;;;22.17;61.71;100063.02;1727328;83;21363;-75
2023/08/09 05:41:16;;;;;;;1.52;0.72;;;;;;;22.79;59.84;100069.30;1714838;83;21946;-75
2023/08/09 05:44:22;;;;;;;4.78;0.85;;;;;;;22.94;60.23;100077.86;1691624;83;21891;-75
2023/08/09 05:47:28;;;;;;;1.52;0.80;;;;;;;23.10;59.63;100078.31;1738258;81;22556;-75
2023/08/09 05:50:35;;;;;;;2.05;1.05;;;;;;;23.09;59.09;100086.92;1760535;81;21337;-74
2023/08/09 05:53:42;;;;;;;1.00;0.70;;;;;;;23.28;58.35;100087.38;1766514;81;21601;-74
2023/08/09 05:56:48;;;;;;;2.60;1.02;;;;;;;23.44;58.35;100092.00;1755839;81;21312;-74
2023/08/09 05:59:53;;;;;;;3.90;1.45;;;;;;;23.54;57.01;100099.61;1754550;81;21887;-75
2023/08/09 06:02:58;;;;;;;2.17;1.32;;;;;;;23.60;55.72;100106.34;1752023;81;22397;-75
2023/08/09 06:06:04;;;;;;;2.85;1.30;;;;;;;23.60;56.92;100100.77;1753656;81;21302;-75
2023/08/09 06:09:10;;;;;;;1.27;0.90;;;;;;;23.63;56.74;100104.43;1754491;80;21382;-76
2023/08/09 06:12:16;;;;;;;2.30;1.00;;;;;;;23.58;57.18;100109.98;1754563;81;21817;-76
2023/08/09 06:15:23;;;;;;;1.27;1.00;;;;;;;23.62;56.54;100109.73;1750617;81;21332;-75
2023/08/09 06:18:29;;;;;;;3.45;0.72;;;;;;;23.52;57.37;100123.58;1755892;81;21295;-76
2023/08/09 06:21:35;;;;;;;1.35;0.60;;;;;;;23.75;56.35;100121.56;1752252;81;21623;-75
2023/08/09 06:24:41;;;;;;;2.70;0.70;;;;;;;23.92;55.25;100127.84;1745874;80;21687;-76
2023/08/09 06:27:40;;;;;;;2.10;0.80;;;;;;;23.89;55.78;100125.58;1766966;80;21276;-76
2023/08/09 06:30:45;;;;;;;1.35;0.80;;;;;;;24.02;54.69;100141.03;1741167;81;21307;-76
2023/08/09 06:33:51;;;;;;;3.12;0.60;;;;;;;24.13;55.54;100129.64;1757401;81;21284;-75
2023/08/09 06:36:58;;;;;;;4.10;0.70;;;;;;;24.34;56.58;100134.80;1759071;80;21330;-76
2023/08/09 06:40:07;;;;;;;1.25;0.60;;;;;;;24.53;54.20;100140.80;1757351;80;22399;-76
2023/08/09 06:43:13;;;;;;;1.60;0.75;;;;;;;24.55;53.71;100135.77;1768337;79;21602;-76
2023/08/09 06:46:13;;;;;;;3.17;0.70;;;;;;;24.84;53.18;100137.58;1775226;79;21309;-76
2023/08/09 06:49:21;;;;;;;1.37;0.60;;;;;;;24.93;53.35;100147.65;1763608;80;21298;-77
2023/08/09 06:52:27;;;;;;;1.62;0.65;;;;;;;24.84;53.51;100151.56;1772180;79;21381;-76
2023/08/09 06:55:32;;;;;;;1.42;0.80;;;;;;;24.63;53.82;100153.98;1766034;80;21365;-76
2023/08/09 06:58:39;;;;;;;0.88;0.75;;;;;;;24.38;54.60;100154.15;1778105;79;21140;-77
2023/08/09 07:01:47;;;;;;;0.72;0.72;;;;;;;24.29;55.70;100159.94;1774602;79;21462;-78
2023/08/09 07:21:20;;;;;;;4.47;0.93;;;;;;;20.86;69.20;100157.91;1870414;74;27946;-77
2023/08/09 07:24:25;;;;;;;1.00;0.90;;;;;;;22.44;65.60;100166.70;1844728;77;21313;-76
2023/08/09 07:27:35;;;;;;;1.12;1.02;;;;;;;22.81;63.72;100156.30;1847979;76;21302;-77
2023/08/09 07:30:40;;;;;;;0.80;0.80;;;;;;;23.13;59.81;100165.64;1770275;79;21365;-76
2023/08/09 07:33:47;;;;;;;1.07;0.70;;;;;;;23.11;59.17;100172.05;1779575;80;22712;-77
2023/08/09 07:36:52;;;;;;;2.55;0.60;;;;;;;22.88;61.32;100165.33;1764910;79;21437;-77
2023/08/09 07:39:58;;;;;;;0.72;0.60;;;;;;;23.03;60.63;100164.69;1742727;81;21341;-77
2023/08/09 07:43:05;;;;;;;5.85;0.70;;;;;;;23.24;59.89;100152.63;1744056;80;21374;-76
2023/08/09 07:46:10;;;;;;;0.50;0.40;;;;;;;23.34;59.45;100165.86;1748881;80;21284;-76
2023/08/09 07:49:16;;;;;;;2.08;0.93;;;;;;;23.52;58.73;100161.82;1753848;80;21319;-76
2023/08/09 07:52:23;;;;;;;1.87;1.10;;;;;;;23.68;57.00;100165.08;1758208;80;21369;-76
2023/08/09 07:55:31;;;;;;;1.55;1.00;;;;;;;23.27;57.88;100162.43;1726295;80;21298;-77
2023/08/09 07:58:37;;;;;;;0.82;0.75;;;;;;;23.53;57.05;100165.77;1710697;80;21646;-77
2023/08/09 08:01:42;;;;;;;0.88;0.57;;;;;;;23.92;55.49;100165.55;1758082;81;21343;-76
2023/08/09 08:04:49;;;;;;;2.85;1.25;;;;;;;23.87;53.91;100162.16;1752014;80;22654;-77
2023/08/09 08:07:55;;;;;;;7.70;2.10;;;;;;;24.10;53.76;100165.69;1746159;80;22486;-77
2023/08/09 08:11:03;;;;;;;6.28;3.70;;;;;;;24.20;54.93;100173.57;1751518;80;21822;-76
2023/08/09 08:14:09;;;;;;;3.90;2.50;;;;;;;24.55;53.76;100167.91;1752602;80;21310;-76
2023/08/09 08:17:16;;;;;;;3.30;1.30;;;;;;;24.61;53.79;100150.07;1753041;80;21326;-76
2023/08/09 08:20:24;;;;;;;2.70;1.70;;;;;;;24.03;54.72;100165.90;1747874;80;21225;-76
2023/08/09 08:23:32;;;;;;;1.70;1.40;;;;;;;24.77;51.55;100171.09;1736034;81;21302;-77
2023/08/09 08:26:39;;;;;;;2.67;1.62;;;;;;;24.70;52.66;100168.53;1799529;79;21870;-76
2023/08/09 08:29:45;;;;;;;1.67;1.25;;;;;;;24.69;52.91;100171.05;1795687;78;21282;-76
2023/08/09 08:32:53;;;;;;;1.75;1.10;;;;;;;24.86;51.87;100170.86;1803187;77;21291;-77
2023/08/09 08:35:59;;;;;;;3.20;1.60;;;;;;;24.81;51.76;100169.44;1800281;77;21335;-76
2023/08/09 08:39:14;;;;;;;4.08;1.10;;;;;;;24.69;52.17;100176.65;1720320;82;21295;-76
2023/08/09 08:42:14;;;;;;;1.62;0.90;;;;;;;24.92;51.35;100165.55;1813800;78;21314;-76
2023/08/09 08:45:16;;;;;;;3.42;0.70;;;;;;;24.90;50.35;100194.38;1792967;78;21280;-77
2023/08/09 08:48:23;;;;;;;1.67;0.70;;;;;;;25.14;49.60;100180.21;1807535;77;21263;-76
2023/08/09 08:51:30;;;;;;;0.88;0.50;;;;;;;24.93;48.91;100177.02;1798536;78;21314;-77
2023/08/09 08:54:36;;;;;;;0.57;0.50;;;;;;;25.10;48.94;100179.08;1789034;77;21334;-77
2023/08/09 08:57:43;;;;;;;1.22;0.62;;;;;;;25.02;48.73;100178.17;1793661;77;21315;-77
2023/08/09 09:00:49;;;;;;;1.00;0.60;;;;;;;25.16;49.50;100182.16;1806795;78;21323;-77
2023/08/09 09:03:55;;;;;;;0.80;0.75;;;;;;;25.03;49.71;100174.28;1801438;79;21335;-77
2023/08/09 09:07:02;;;;;;;4.10;1.47;;;;;;;25.03;49.52;100180.41;1783658;78;21370;-78
2023/08/09 09:10:25;;;;;;;5.50;2.47;;;;;;;25.16;49.93;100181.32;1801678;77;21310;-77
2023/08/09 09:13:33;;;;;;;3.40;1.62;;;;;;;25.39;50.46;100189.77;1804790;78;21301;-77
2023/08/09 09:16:33;;;;;;;2.02;0.93;;;;;;;25.69;50.11;100191.79;1797956;77;21315;-79
2023/08/09 09:19:26;;;;;;;0.88;0.60;;;;;;;25.66;48.22;100174.12;1761009;77;21278;-78
2023/08/09 09:22:38;;;;;;;1.07;0.80;;;;;;;25.49;48.32;100179.42;1781825;78;21319;-76
2023/08/09 09:25:45;;;;;;;1.27;0.60;;;;;;;25.23;48.22;100178.55;1780277;79;21486;-77
2023/08/09 09:28:54;;;;;;;3.45;0.70;;;;;;;25.30;48.54;100178.84;1786485;80;21650;-76
2023/08/09 09:31:59;;;;;;;0.50;0.50;;;;;;;25.29;47.43;100179.96;1789335;80;21322;-76
2023/08/09 09:35:04;;;;;;;0.68;0.60;;;;;;;25.45;48.14;100180.25;1791055;80;21307;-75
2023/08/09 09:38:12;;;;;;;3.50;0.62;;;;;;;25.40;49.57;100181.65;1706915;82;21909;-76
2023/08/09 09:41:18;;;;;;;0.93;0.75;;;;;;;25.74;48.11;100190.39;1782339;79;21970;-77
2023/08/09 09:44:31;;;;;;;5.25;0.80;;;;;;;25.59;48.37;100182.79;1693878;82;21288;-77
2023/08/09 09:47:42;;;;;;;0.70;0.55;;;;;;;25.50;47.80;100195.66;1718122;81;21335;-77
2023/08/09 09:50:49;;;;;;;1.77;0.60;;;;;;;25.67;47.98;100195.41;1701381;83;21315;-77
2023/08/09 09:53:54;;;;;;;1.50;0.78;;;;;;;25.69;48.61;100190.39;1780535;79;21857;-77
2023/08/09 09:56:59;;;;;;;2.33;0.75;;;;;;;25.88;48.77;100179.50;1788674;79;21311;-77
2023/08/09 10:00:05;;;;;;;3.40;0.60;;;;;;;25.97;47.48;100188.98;1787059;78;21315;-77
2023/08/09 10:03:04;;;;;;;1.60;0.70;;;;;;;26.11;46.92;100178.05;1783276;79;21275;-77
2023/08/09 10:06:10;;;;;;;2.00;0.80;;;;;;;25.83;46.37;100191.55;1794442;79;21307;-77
2023/08/09 10:09:17;;;;;;;3.25;0.60;;;;;;;25.94;47.20;100183.96;1794096;80;21906;-77
2023/08/09 10:12:23;;;;;;;3.17;0.60;;;;;;;26.12;46.55;100179.75;1808584;79;21286;-77
2023/08/09 10:15:32;;;;;;;1.05;0.62;;;;;;;26.32;45.97;100183.06;1773536;79;21304;-77
2023/08/09 10:18:57;;;;;;;0.50;0.50;;;;;;;26.17;45.70;100186.18;1792803;80;21590;-77
2023/08/09 10:22:07;;;;;;;5.12;1.15;;;;;;;26.07;46.28;100184.80;1796807;79;21331;-78
2023/08/09 10:25:12;;;;;;;3.67;2.37;;;;;;;26.41;46.79;100183.61;1801947;77;22551;-80
2023/08/09 10:28:17;;;;;;;4.42;2.80;;;;;;;26.43;46.33;100181.94;1810709;77;21298;-79
2023/08/09 10:31:24;;;;;;;3.65;1.87;;;;;;;26.22;45.23;100175.52;1796050;78;21311;-79
2023/08/09 10:34:43;;;;;;;5.65;2.50;;;;;;;26.44;46.60;100180.81;1805543;77;21322;-79
2023/08/09 10:37:48;;;;;;;4.83;3.30;;;;;;;26.61;45.70;100177.12;1825928;77;21989;-79
2023/08/09 10:40:59;;;;;;;3.30;2.17;;;;;;;26.52;46.32;100178.83;1811402;77;21639;-79
2023/08/09 10:44:11;;;;;;;4.95;2.35;;;;;;;26.12;47.53;100174.98;1821101;77;21302;-80
2023/08/09 10:47:28;;;;;;;4.30;1.87;;;;;;;26.56;48.89;100174.34;1799934;78;21302;-79
2023/08/09 10:50:33;;;;;;;7.37;3.35;;;;;;;26.56;46.66;100172.09;1815457;78;21834;-77
2023/08/09 10:53:59;;;;;;;6.37;3.17;;;;;;;26.50;46.76;100184.73;1781067;77;21349;-77
2023/08/09 10:57:05;;;;;;;4.53;3.15;;;;;;;26.16;45.98;100171.03;1737137;80;21307;-79
2023/08/09 11:00:12;;;;;;;11.33;4.50;;;;;;;26.36;46.92;100177.17;1735356;79;21317;-79
2023/08/09 11:03:18;;;;;;;6.72;3.25;;;;;;;26.67;47.04;100173.16;1725551;80;21350;-78
2023/08/09 11:06:27;;;;;;;5.97;3.47;;;;;;;26.51;47.03;100184.17;1743795;81;21881;-78
2023/08/09 11:09:30;;;;;;;4.20;2.60;;;;;;;26.18;47.62;100183.65;1729410;80;21931;-78
2023/08/09 11:12:22;;;;;;;5.75;2.00;;;;;;;26.43;46.21;100183.34;1742522;80;21330;-78
2023/08/09 11:15:27;;;;;;;3.50;2.15;;;;;;;26.72;46.26;100180.72;1747913;80;21292;-78
2023/08/09 11:18:26;;;;;;;1.98;1.30;;;;;;;26.72;47.36;100173.70;1757138;80;21878;-77
2023/08/09 11:21:19;;;;;;;3.08;0.90;;;;;;;26.82;45.83;100177.03;1765948;80;21296;-79
2023/08/09 11:24:29;;;;;;;6.05;2.30;;;;;;;26.83;44.81;100168.34;1732063;82;21974;-78
2023/08/09 11:27:34;;;;;;;1.00;0.90;;;;;;;27.29;44.87;100177.96;1811479;77;21303;-79
2023/08/09 11:30:40;;;;;;;1.70;1.02;;;;;;;27.33;44.76;100176.22;1806684;79;21866;-79
2023/08/09 11:33:47;;;;;;;1.32;0.90;;;;;;;27.05;44.75;100176.35;1796138;79;21304;-79
2023/08/09 11:36:56;;;;;;;3.58;1.10;;;;;;;27.46;44.59;100174.17;1801545;78;21957;-77
2023/08/09 11:40:02;;;;;;;1.55;0.72;;;;;;;27.60;43.75;100177.16;1801124;77;21440;-76
2023/08/09 11:43:08;;;;;;;1.30;0.70;;;;;;;27.70;44.56;100179.88;1752660;80;21342;-79
2023/08/09 11:46:14;;;;;;;2.77;0.57;;;;;;;27.38;43.65;100172.54;1807452;77;21948;-78
2023/08/09 11:49:19;;;;;;;1.67;0.70;;;;;;;27.35;42.48;100166.13;1748924;80;21316;-78
2023/08/09 11:52:24;;;;;;;5.78;0.62;;;;;;;27.36;44.30;100160.20;1743537;81;22341;-78
2023/08/09 11:55:31;;;;;;;1.45;0.80;;;;;;;27.35;43.73;100160.51;1759104;80;21295;-78
2023/08/09 11:58:38;;;;;;;0.70;0.60;;;;;;;27.34;42.84;100177.92;1770182;80;21327;-78
2023/08/09 12:01:45;;;;;;;2.87;0.60;;;;;;;27.35;43.66;100164.72;1774610;80;21328;-78
2023/08/09 12:04:51;;;;;;;1.10;0.57;;;;;;;27.36;43.67;100166.39;1733676;82;21947;-77
2023/08/09 12:07:57;;;;;;;1.07;0.80;;;;;;;27.60;42.87;100168.73;1797316;79;21192;-79
2023/08/09 12:11:06;;;;;;;1.50;0.70;;;;;;;27.71;43.03;100160.55;1809066;78;21312;-78
2023/08/09 12:14:10;;;;;;;0.93;0.70;;;;;;;27.35;44.52;100164.72;1742246;82;21351;-78
2023/08/09 12:17:25;;;;;;;1.52;0.70;;;;;;;27.47;44.09;100166.58;1768415;80;21299;-78
2023/08/09 12:20:31;;;;;;;1.02;0.62;;;;;;;27.61;43.55;100166.76;1722623;81;21603;-77
2023/08/09 12:23:37;;;;;;;1.72;0.62;;;;;;;27.68;43.79;100173.73;1762905;80;21355;-78
2023/08/09 12:26:43;;;;;;;0.95;0.60;;;;;;;27.51;43.86;100173.30;1716470;82;21360;-77
2023/08/09 12:29:50;;;;;;;2.58;0.72;;;;;;;27.49;42.69;100164.34;1806930;77;21335;-77
2023/08/09 12:32:57;;;;;;;1.12;0.50;;;;;;;27.50;43.01;100154.77;1798025;79;21299;-78
2023/08/09 12:36:02;;;;;;;0.80;0.70;;;;;;;27.49;43.75;100174.17;1786643;79;21291;-78
2023/08/09 12:39:14;;;;;;;4.80;0.60;;;;;;;27.46;42.83;100167.15;1812838;78;21287;-78
2023/08/09 12:42:20;;;;;;;3.37;0.70;;;;;;;27.36;43.52;100176.22;1806680;78;21299;-78
2023/08/09 12:45:26;;;;;;;5.28;0.93;;;;;;;27.70;42.78;100163.59;1800581;78;21362;-77
2023/08/09 12:48:32;;;;;;;1.35;0.95;;;;;;;27.69;43.54;100168.38;1810595;78;21302;-77
2023/08/09 12:51:38;;;;;;;1.52;0.70;;;;;;;27.79;42.35;100169.46;1710267;81;21359;-77
2023/08/09 12:54:44;;;;;;;2.77;0.55;;;;;;;27.50;42.30;100173.86;1742951;82;21354;-76
2023/08/09 12:57:51;;;;;;;2.00;0.75;;;;;;;27.65;41.71;100197.35;1748916;80;21893;-76
2023/08/09 13:00:56;;;;;;;2.75;0.70;;;;;;;27.65;42.19;100176.28;1745102;82;21893;-77
2023/08/09 13:04:04;;;;;;;2.90;1.10;;;;;;;27.67;41.79;100173.47;1767121;80;21343;-76
2023/08/09 13:07:13;;;;;;;2.53;0.80;;;;;;;27.48;42.13;100167.71;1734471;82;21308;-77
2023/08/09 13:10:46;;;;;;;2.20;0.80;;;;;;;27.59;42.74;100182.52;1812879;79;21350;-76
2023/08/09 13:13:52;;;;;;;2.47;0.65;;;;;;;27.77;41.07;100196.46;1739952;82;21877;-77
2023/08/09 13:16:58;;;;;;;1.07;0.62;;;;;;;27.71;40.95;100167.57;1800813;79;21300;-77
2023/08/09 13:20:04;;;;;;;0.88;0.65;;;;;;;27.84;41.53;100164.62;1792734;80;21312;-77
2023/08/09 13:23:10;;;;;;;0.93;0.57;;;;;;;27.84;41.97;100172.22;1794231;80;21770;-77
2023/08/09 13:26:17;;;;;;;2.47;0.72;;;;;;;27.95;41.76;100192.10;1723368;82;21303;-76
2023/08/09 13:29:22;;;;;;;0.75;0.60;;;;;;;27.79;41.03;100183.52;1792737;79;21286;-77
2023/08/09 13:32:28;;;;;;;0.80;0.60;;;;;;;28.19;40.74;100187.37;1773240;81;21663;-77
2023/08/09 13:35:37;;;;;;;3.27;0.82;;;;;;;28.26;40.62;100180.81;1741333;82;21323;-77
2023/08/09 13:38:50;;;;;;;1.10;0.70;;;;;;;28.44;40.42;100188.27;1780517;80;21325;-77
2023/08/09 13:41:56;;;;;;;0.85;0.60;;;;;;;28.13;40.96;100188.53;1765623;81;21200;-77
2023/08/09 13:45:02;;;;;;;1.60;0.65;;;;;;;28.35;40.23;100191.45;1742318;81;22371;-77
2023/08/09 13:48:08;;;;;;;0.88;0.65;;;;;;;28.21;40.14;100185.08;1804950;79;21287;-77
2023/08/09 13:51:17;;;;;;;5.55;1.00;;;;;;;28.28;39.64;100191.78;1804332;79;21286;-77
2023/08/09 13:54:22;;;;;;;5.90;0.82;;;;;;;27.79;41.29;100178.73;1805923;79;21287;-76
2023/08/09 13:57:29;;;;;;;0.88;0.75;;;;;;;28.10;40.71;100175.09;1803874;79;22591;-76
2023/08/09 14:00:35;;;;;;;1.10;0.82;;;;;;;28.15;40.36;100182.63;1806070;79;22587;-76
2023/08/09 14:03:41;;;;;;;1.75;0.60;;;;;;;28.17;40.13;100185.40;1805971;79;21287;-76
2023/08/09 14:06:47;;;;;;;1.27;0.70;;;;;;;28.15;40.00;100194.71;1804564;79;21322;-77
2023/08/09 14:09:48;;;;;;;1.60;0.80;;;;;;;28.13;40.39;100196.13;1805571;79;21291;-78
2023/08/09 14:12:55;;;;;;;3.17;0.80;;;;;;;28.16;40.41;100202.01;1803704;79;21310;-77
2023/08/09 14:16:01;;;;;;;1.20;0.50;;;;;;;28.35;39.98;100199.89;1804560;79;21891;-77
2023/08/09 14:19:07;;;;;;;2.45;0.68;;;;;;;28.37;39.65;100195.66;1805940;79;21600;-76
2023/08/09 14:22:12;;;;;;;0.80;0.60;;;;;;;28.07;40.28;100205.75;1805911;79;21291;-77
2023/08/09 14:25:18;;;;;;;3.42;0.75;;;;;;;28.02;40.36;100194.83;1805936;79;21286;-76
2023/08/09 14:28:24;;;;;;;2.15;0.60;;;;;;;28.09;40.41;100204.88;1804282;79;21311;-77
2023/08/09 14:31:31;;;;;;;1.95;0.78;;;;;;;27.81;40.91;100200.91;1805433;79;21156;-77
2023/08/09 14:34:36;;;;;;;3.67;0.82;;;;;;;27.93;40.79;100204.19;1805399;79;21279;-77
2023/08/09 14:37:53;;;;;;;2.80;1.27;;;;;;;27.97;40.73;100209.50;1804511;79;21315;-77
2023/08/09 14:40:58;;;;;;;4.33;0.90;;;;;;;28.05;40.06;100217.88;1803749;79;22117;-77
2023/08/09 14:44:06;;;;;;;1.25;0.98;;;;;;;28.19;39.54;100223.09;1805340;79;21259;-78
2023/08/09 14:47:13;;;;;;;3.00;1.07;;;;;;;28.19;39.49;100209.03;1804180;79;21333;-76
2023/08/09 14:50:19;;;;;;;9.35;1.30;;;;;;;28.18;40.14;100211.55;1805386;79;21861;-77